Time;durP1;ratioP1;P1;durP2;ratioP2;P2;SDS_P1;SDS_P2;PMS_P1;PMS_P2;Temp;Humidity;BMP_temperature;BMP_pressure;BME280_temperature;BME280_humidity;BME280_pressure;Samples;Min_cycle;Max_cycle;Signal;HPM_P1;HPM_P2
2021/05/05 00:01:53;;;;;;;5.27;1.60;;;10.30;99.90;;;;;;5050943;28;20443;-70
2021/05/05 00:04:38;;;;;;;2.00;1.50;;;10.30;99.90;;;;;;5057322;28;20422;-69
2021/05/05 00:07:24;;;;;;;3.37;1.90;;;10.20;99.90;;;;;;5055285;28;20472;-69
2021/05/05 00:10:11;;;;;;;6.67;3.00;;;10.20;99.90;;;;;;5055455;28;20446;-68
2021/05/05 00:12:56;;;;;;;2.10;1.43;;;10.20;99.90;;;;;;5062408;28;20447;-69
2021/05/05 00:15:41;;;;;;;5.60;1.80;;;10.30;99.90;;;;;;5054452;28;20495;-69
2021/05/05 00:18:27;;;;;;;5.43;1.80;;;10.30;99.90;;;;;;5054378;28;20436;-68
2021/05/05 00:21:12;;;;;;;5.50;2.00;;;10.20;99.90;;;;;;5056646;28;20493;-70
2021/05/05 00:23:57;;;;;;;5.20;1.93;;;10.20;99.90;;;;;;5059995;28;20421;-69
2021/05/05 00:26:42;;;;;;;3.90;1.80;;;10.00;99.90;;;;;;5057793;28;20490;-69
2021/05/05 00:29:27;;;;;;;3.03;1.57;;;10.00;99.90;;;;;;5054070;28;20442;-69
2021/05/05 00:32:12;;;;;;;3.80;1.77;;;9.90;99.90;;;;;;5060813;28;20482;-69
2021/05/05 00:34:58;;;;;;;3.23;1.83;;;9.90;99.90;;;;;;5063635;28;20416;-68
2021/05/05 00:37:43;;;;;;;3.97;1.57;;;9.90;99.90;;;;;;5058781;28;20475;-69
2021/05/05 00:40:29;;;;;;;3.83;1.80;;;10.00;99.90;;;;;;5065954;28;20994;-69
2021/05/05 00:43:14;;;;;;;3.03;1.60;;;10.00;99.90;;;;;;5060052;28;20413;-69
2021/05/05 00:45:59;;;;;;;3.50;1.43;;;10.10;99.90;;;;;;5062840;28;20871;-69
2021/05/05 00:48:45;;;;;;;4.00;2.10;;;10.00;99.90;;;;;;5061220;28;20468;-69
2021/05/05 00:51:31;;;;;;;4.70;1.53;;;9.90;99.90;;;;;;5060009;28;20497;-69
2021/05/05 00:54:16;;;;;;;3.13;1.77;;;9.90;99.90;;;;;;5054566;28;20414;-69
2021/05/05 00:57:01;;;;;;;3.93;2.00;;;9.80;99.90;;;;;;5057131;28;20899;-68
2021/05/05 00:59:47;;;;;;;4.87;1.80;;;9.70;99.90;;;;;;5057768;28;20943;-68
2021/05/05 01:02:33;;;;;;;3.17;2.20;;;9.70;99.90;;;;;;5062358;28;20783;-69
2021/05/05 01:05:18;;;;;;;2.77;1.60;;;9.70;99.90;;;;;;5055860;28;20449;-68
2021/05/05 01:08:06;;;;;;;3.60;1.70;;;9.80;99.90;;;;;;5051564;28;20849;-69
2021/05/05 01:10:51;;;;;;;3.90;1.70;;;9.90;99.90;;;;;;5056118;28;21011;-68
2021/05/05 01:13:37;;;;;;;2.30;1.40;;;9.80;99.90;;;;;;5057441;28;20931;-69
2021/05/05 01:16:22;;;;;;;3.40;1.50;;;9.80;99.90;;;;;;5060218;28;20473;-69
2021/05/05 01:19:07;;;;;;;4.30;1.70;;;9.80;99.90;;;;;;5053480;28;20494;-69
2021/05/05 01:21:53;;;;;;;4.13;1.80;;;9.80;99.90;;;;;;5053354;28;20461;-68
2021/05/05 01:24:39;;;;;;;4.70;1.43;;;9.90;99.90;;;;;;5054704;28;20843;-69
2021/05/05 01:27:24;;;;;;;2.83;1.50;;;9.80;99.90;;;;;;5053015;28;20500;-68
2021/05/05 01:30:11;;;;;;;2.50;1.50;;;9.80;99.90;;;;;;5059182;28;20481;-69
2021/05/05 01:32:56;;;;;;;2.90;1.53;;;9.90;99.90;;;;;;5058501;28;20490;-70
2021/05/05 01:35:42;;;;;;;3.27;1.40;;;9.80;99.90;;;;;;5063695;28;20443;-68
2021/05/05 01:38:28;;;;;;;2.10;1.30;;;9.90;99.90;;;;;;5063006;28;20606;-69
2021/05/05 01:41:13;;;;;;;3.70;1.43;;;9.80;99.90;;;;;;5058282;28;20450;-69
2021/05/05 01:43:58;;;;;;;4.23;1.40;;;9.80;99.90;;;;;;5053036;28;20422;-69
2021/05/05 01:46:49;;;;;;;3.37;1.30;;;9.80;99.90;;;;;;5056774;28;20463;-69
2021/05/05 01:49:35;;;;;;;3.83;1.30;;;9.80;99.90;;;;;;5064413;28;20479;-69
2021/05/05 01:52:21;;;;;;;3.80;1.77;;;9.90;99.90;;;;;;5059797;28;20443;-69
2021/05/05 01:55:10;;;;;;;3.20;1.10;;;9.80;99.90;;;;;;5056944;28;20963;-69
2021/05/05 01:57:55;;;;;;;4.47;1.67;;;9.70;99.90;;;;;;5063861;28;20475;-69
2021/05/05 02:00:41;;;;;;;2.90;1.67;;;9.80;99.90;;;;;;5057117;28;20444;-69
2021/05/05 02:03:26;;;;;;;4.50;1.67;;;9.70;99.90;;;;;;5057626;28;20420;-70
2021/05/05 02:06:11;;;;;;;2.60;1.50;;;9.70;99.90;;;;;;5052533;28;20482;-69
2021/05/05 02:08:58;;;;;;;6.20;1.43;;;9.60;99.90;;;;;;5058902;28;20570;-69
2021/05/05 02:11:44;;;;;;;10.03;1.60;;;9.60;99.90;;;;;;5061404;28;20503;-70
2021/05/05 02:14:29;;;;;;;4.00;1.30;;;9.50;99.90;;;;;;5055583;28;20421;-68
2021/05/05 02:17:15;;;;;;;6.13;1.33;;;9.60;99.90;;;;;;5059677;28;20962;-69
2021/05/05 02:20:01;;;;;;;3.00;1.07;;;9.70;99.90;;;;;;5051349;28;20439;-69
2021/05/05 02:22:47;;;;;;;6.57;1.87;;;9.70;99.90;;;;;;5053020;28;20795;-69
2021/05/05 02:25:33;;;;;;;4.87;1.50;;;9.60;99.90;;;;;;5063449;28;20463;-69
2021/05/05 02:28:20;;;;;;;3.20;1.37;;;9.70;99.90;;;;;;5054748;28;20567;-68
2021/05/05 02:31:05;;;;;;;5.73;1.30;;;9.70;99.90;;;;;;5055466;28;20775;-69
2021/05/05 02:33:50;;;;;;;3.47;1.70;;;9.70;99.90;;;;;;5059362;28;20551;-68
2021/05/05 02:36:35;;;;;;;5.60;1.50;;;9.80;99.90;;;;;;5060718;28;20458;-69
2021/05/05 02:39:21;;;;;;;2.53;1.33;;;9.80;99.90;;;;;;5057551;28;20489;-69
2021/05/05 02:42:07;;;;;;;4.77;1.60;;;9.80;99.90;;;;;;5066428;28;20449;-69
2021/05/05 02:44:53;;;;;;;3.50;1.53;;;9.70;99.90;;;;;;5051899;28;20808;-69
2021/05/05 02:47:39;;;;;;;3.70;1.30;;;9.70;99.90;;;;;;5055955;28;20525;-69
2021/05/05 02:50:24;;;;;;;4.57;1.30;;;9.70;99.90;;;;;;5053071;28;20533;-69
2021/05/05 02:53:09;;;;;;;4.07;1.30;;;9.60;99.90;;;;;;5054394;28;20462;-69
2021/05/05 02:55:54;;;;;;;4.97;1.50;;;9.70;99.90;;;;;;5055451;28;20451;-69
2021/05/05 02:58:40;;;;;;;3.43;1.70;;;9.60;99.90;;;;;;5054753;28;20417;-69
2021/05/05 03:01:25;;;;;;;6.07;1.40;;;9.60;99.90;;;;;;5055932;28;20583;-69
2021/05/05 03:04:11;;;;;;;3.00;1.73;;;9.60;99.90;;;;;;5055380;28;20494;-69
2021/05/05 03:06:56;;;;;;;2.73;1.67;;;9.50;99.90;;;;;;5052842;28;21073;-68
2021/05/05 03:09:41;;;;;;;5.03;1.77;;;9.60;99.90;;;;;;5056259;28;21028;-69
2021/05/05 03:12:26;;;;;;;3.97;1.83;;;9.70;99.90;;;;;;5062234;28;20468;-70
2021/05/05 03:15:11;;;;;;;5.97;1.63;;;9.70;99.90;;;;;;5057051;28;21045;-69
2021/05/05 03:17:57;;;;;;;6.23;1.77;;;9.60;99.90;;;;;;5056950;28;21043;-69
2021/05/05 03:20:42;;;;;;;4.33;2.20;;;9.50;99.90;;;;;;5049840;28;20454;-68
2021/05/05 03:23:28;;;;;;;3.03;1.47;;;9.40;99.90;;;;;;5052844;28;21205;-69
2021/05/05 03:26:13;;;;;;;2.70;1.50;;;9.30;99.90;;;;;;5055845;28;20514;-69
2021/05/05 03:28:58;;;;;;;3.20;1.73;;;9.30;99.90;;;;;;5057845;28;20516;-70
2021/05/05 03:31:44;;;;;;;4.37;1.90;;;9.20;99.90;;;;;;5052910;28;20437;-69
2021/05/05 03:34:30;;;;;;;3.00;1.80;;;9.20;99.90;;;;;;5056417;28;20937;-69
2021/05/05 03:37:15;;;;;;;3.80;1.70;;;9.20;99.90;;;;;;5055194;28;20440;-69
2021/05/05 03:40:00;;;;;;;3.40;2.00;;;9.30;99.90;;;;;;5058934;28;20443;-69
2021/05/05 03:42:45;;;;;;;6.97;1.97;;;9.40;99.90;;;;;;5059015;28;20489;-69
2021/05/05 03:45:31;;;;;;;4.73;1.70;;;9.40;99.90;;;;;;5050673;28;20820;-69
2021/05/05 03:48:16;;;;;;;9.23;2.40;;;9.40;99.90;;;;;;5055250;28;20454;-69
2021/05/05 03:51:03;;;;;;;3.70;1.87;;;9.40;99.90;;;;;;5058208;28;20428;-69
2021/05/05 03:53:48;;;;;;;5.90;2.20;;;9.40;99.90;;;;;;5052913;28;20533;-69
2021/05/05 03:56:33;;;;;;;5.10;1.67;;;9.50;99.90;;;;;;5058302;28;20598;-69
2021/05/05 03:59:18;;;;;;;9.50;2.30;;;9.50;99.90;;;;;;5057321;28;20477;-70
2021/05/05 04:02:03;;;;;;;6.70;2.40;;;9.50;99.90;;;;;;5061106;28;20876;-69
2021/05/05 04:04:48;;;;;;;7.57;1.93;;;9.60;99.90;;;;;;5053840;28;20420;-69
2021/05/05 04:07:34;;;;;;;3.70;1.87;;;9.50;99.90;;;;;;5060714;28;20490;-69
2021/05/05 04:10:20;;;;;;;7.00;2.33;;;9.50;99.90;;;;;;5058215;28;21198;-68
2021/05/05 04:13:05;;;;;;;5.43;2.30;;;9.50;99.90;;;;;;5059315;28;20991;-69
2021/05/05 04:15:50;;;;;;;3.97;2.40;;;9.60;99.90;;;;;;5060884;28;20975;-69
2021/05/05 04:18:35;;;;;;;5.20;2.10;;;9.60;99.90;;;;;;5057458;28;20421;-69
2021/05/05 04:21:22;;;;;;;6.87;2.20;;;9.50;99.90;;;;;;5053694;28;20418;-68
2021/05/05 04:24:12;;;;;;;4.73;2.30;;;9.50;99.90;;;;;;5059197;28;20488;-69
2021/05/05 04:26:58;;;;;;;3.90;2.23;;;9.40;99.90;;;;;;5065075;28;20461;-68
2021/05/05 04:29:43;;;;;;;4.80;2.50;;;9.30;99.90;;;;;;5062683;28;20528;-67
2021/05/05 04:32:28;;;;;;;5.50;2.47;;;9.20;99.90;;;;;;5057672;28;20493;-69
2021/05/05 04:35:14;;;;;;;5.23;2.77;;;9.10;99.90;;;;;;5063305;28;20478;-68
2021/05/05 04:38:00;;;;;;;11.83;3.20;;;9.30;99.90;;;;;;5064664;28;20458;-69
2021/05/05 04:40:45;;;;;;;7.70;2.30;;;9.30;99.90;;;;;;5067183;28;20497;-69
2021/05/05 04:43:30;;;;;;;5.30;2.57;;;9.20;99.90;;;;;;5070120;28;20802;-69
2021/05/05 04:46:16;;;;;;;5.33;2.00;;;9.10;99.90;;;;;;5063135;28;21038;-69
2021/05/05 04:49:01;;;;;;;6.67;2.50;;;9.10;99.90;;;;;;5065151;28;20493;-67
2021/05/05 04:51:46;;;;;;;6.70;2.40;;;9.10;99.90;;;;;;5060158;28;20442;-68
2021/05/05 04:54:31;;;;;;;4.03;2.53;;;9.20;99.90;;;;;;5064365;28;21186;-69
2021/05/05 04:57:18;;;;;;;8.57;2.10;;;9.20;99.90;;;;;;5060739;28;20834;-70
2021/05/05 05:00:04;;;;;;;4.37;2.40;;;9.30;99.90;;;;;;5051509;28;20875;-69
2021/05/05 05:02:49;;;;;;;6.70;2.00;;;9.20;99.90;;;;;;5064941;28;20447;-69
2021/05/05 05:05:34;;;;;;;11.40;2.23;;;9.20;99.90;;;;;;5063471;28;21316;-70
2021/05/05 05:08:19;;;;;;;9.60;2.30;;;9.30;99.90;;;;;;5060039;28;20497;-69
2021/05/05 05:11:04;;;;;;;4.60;2.30;;;9.20;99.90;;;;;;5057265;28;20860;-68
2021/05/05 05:13:50;;;;;;;12.83;2.33;;;9.20;99.90;;;;;;5059221;28;20943;-69
2021/05/05 05:16:35;;;;;;;8.83;2.53;;;9.30;99.90;;;;;;5057128;28;21003;-69
2021/05/05 05:19:20;;;;;;;5.83;3.37;;;9.30;99.90;;;;;;5063678;28;20494;-68
2021/05/05 05:22:05;;;;;;;6.93;3.10;;;9.40;99.90;;;;;;5054050;28;20576;-69
2021/05/05 05:24:51;;;;;;;5.57;2.80;;;9.50;99.90;;;;;;5056110;28;20473;-70
2021/05/05 05:27:36;;;;;;;5.27;2.57;;;9.60;99.90;;;;;;5056814;28;20445;-69
2021/05/05 05:30:24;;;;;;;9.80;2.63;;;9.50;99.90;;;;;;5059502;28;21616;-69
2021/05/05 05:33:09;;;;;;;10.97;2.90;;;9.60;99.90;;;;;;5057241;28;20538;-68
2021/05/05 05:35:54;;;;;;;6.87;2.30;;;9.70;99.90;;;;;;5053602;28;20463;-69
2021/05/05 05:38:39;;;;;;;9.77;2.53;;;9.80;99.90;;;;;;5054763;28;20504;-68
2021/05/05 05:41:24;;;;;;;7.90;2.23;;;9.70;99.90;;;;;;5060129;28;20471;-70
2021/05/05 05:44:09;;;;;;;11.83;3.03;;;9.70;99.90;;;;;;5059154;28;20417;-69
2021/05/05 05:46:55;;;;;;;6.27;2.13;;;9.60;99.90;;;;;;5053451;28;20462;-69
2021/05/05 05:49:40;;;;;;;8.03;2.17;;;9.80;99.90;;;;;;5053340;28;20514;-68
2021/05/05 05:52:26;;;;;;;8.00;2.53;;;9.90;99.90;;;;;;5060425;28;20450;-68
2021/05/05 05:55:15;;;;;;;9.90;2.50;;;10.10;99.90;;;;;;5053741;28;20442;-69
2021/05/05 05:58:00;;;;;;;8.13;2.60;;;10.10;99.90;;;;;;5059569;28;20466;-69
2021/05/05 06:00:45;;;;;;;8.97;2.30;;;10.30;99.90;;;;;;5060004;28;20443;-68
2021/05/05 06:03:31;;;;;;;11.13;2.63;;;10.30;99.90;;;;;;5052695;28;20455;-70
2021/05/05 06:06:16;;;;;;;6.80;3.50;;;10.20;99.90;;;;;;5056408;28;20498;-70
2021/05/05 06:09:01;;;;;;;11.67;3.10;;;10.20;99.90;;;;;;5052361;28;20479;-69
2021/05/05 06:11:47;;;;;;;7.70;2.63;;;10.20;99.90;;;;;;5056273;28;20449;-68
2021/05/05 06:14:32;;;;;;;9.13;2.17;;;10.30;99.90;;;;;;5057924;28;20437;-70
2021/05/05 06:17:18;;;;;;;6.75;3.05;;;10.30;99.90;;;;;;5065775;28;20509;-69
2021/05/05 06:20:06;;;;;;;6.83;1.97;;;10.20;99.90;;;;;;5060338;28;20205;-69
2021/05/05 06:22:51;;;;;;;7.37;1.90;;;10.00;99.90;;;;;;5049723;28;20447;-69
2021/05/05 06:25:36;;;;;;;6.70;2.53;;;10.20;99.90;;;;;;5058770;28;20487;-70
2021/05/05 06:28:21;;;;;;;9.70;1.93;;;10.20;99.90;;;;;;5064653;28;20497;-69
2021/05/05 06:31:07;;;;;;;12.20;2.60;;;10.10;99.90;;;;;;5059745;28;20417;-69
2021/05/05 06:33:52;;;;;;;11.47;2.53;;;9.80;99.90;;;;;;5056031;28;20808;-69
2021/05/05 06:36:38;;;;;;;6.33;1.70;;;9.70;99.90;;;;;;5056410;28;21021;-70
2021/05/05 06:39:23;;;;;;;13.90;3.13;;;9.70;99.90;;;;;;5055999;28;20442;-69
2021/05/05 06:42:08;;;;;;;9.13;2.50;;;9.80;99.90;;;;;;5064328;28;20491;-69
2021/05/05 06:44:53;;;;;;;8.93;2.67;;;9.80;99.90;;;;;;5060237;28;20429;-69
2021/05/05 06:47:38;;;;;;;8.97;2.40;;;9.70;99.90;;;;;;5053310;28;20505;-69
2021/05/05 06:50:25;;;;;;;8.03;2.17;;;9.80;99.90;;;;;;5061790;28;20450;-69
2021/05/05 06:53:11;;;;;;;8.17;3.67;;;9.70;99.90;;;;;;5055370;28;20495;-69
2021/05/05 06:55:57;;;;;;;6.63;2.47;;;9.60;99.90;;;;;;5053024;28;20457;-69
2021/05/05 06:58:42;;;;;;;6.00;3.63;;;9.40;99.90;;;;;;5054785;28;20922;-68
2021/05/05 07:01:27;;;;;;;12.27;2.30;;;9.50;99.90;;;;;;5058128;28;20470;-69
2021/05/05 07:04:12;;;;;;;8.27;3.20;;;9.60;99.90;;;;;;5060483;28;20464;-69
2021/05/05 07:06:57;;;;;;;11.77;3.57;;;9.50;99.90;;;;;;5062932;28;20474;-69
2021/05/05 07:09:43;;;;;;;11.23;3.27;;;9.80;99.90;;;;;;5055785;28;20496;-69
2021/05/05 07:12:28;;;;;;;14.10;3.10;;;9.90;99.90;;;;;;5052653;28;20477;-69
2021/05/05 07:15:14;;;;;;;9.60;3.70;;;10.20;99.90;;;;;;5055303;28;20421;-69
2021/05/05 07:17:59;;;;;;;13.00;4.00;;;10.30;99.90;;;;;;5054317;28;20467;-69
2021/05/05 07:20:45;;;;;;;14.20;2.37;;;10.40;99.90;;;;;;5060465;28;20530;-70
2021/05/05 07:23:30;;;;;;;9.73;3.43;;;10.30;99.90;;;;;;5053837;28;20501;-69
2021/05/05 07:26:16;;;;;;;5.03;2.30;;;10.20;99.90;;;;;;5056865;28;20436;-70
2021/05/05 07:29:02;;;;;;;9.07;2.40;;;10.20;99.90;;;;;;5053427;28;20834;-68
2021/05/05 07:31:47;;;;;;;8.23;2.30;;;10.30;99.90;;;;;;5056673;28;20446;-70
2021/05/05 07:34:33;;;;;;;9.47;3.30;;;10.20;99.90;;;;;;5062969;28;20449;-70
2021/05/05 07:37:26;;;;;;;7.10;2.90;;;10.40;99.50;;;;;;5056606;28;20475;-69
2021/05/05 07:40:41;;;;;;;8.50;2.37;;;10.30;98.50;;;;;;5057450;28;20971;-68
2021/05/05 07:46:35;;;;;;;13.87;3.00;;;10.30;97.20;;;;;;5035926;28;20484;-69
2021/05/05 07:49:22;;;;;;;10.23;2.53;;;10.50;97.30;;;;;;5064632;28;21417;-69
2021/05/05 07:52:08;;;;;;;9.30;3.23;;;10.40;93.60;;;;;;5054862;28;20416;-69
2021/05/05 07:54:53;;;;;;;9.07;2.60;;;10.40;94.30;;;;;;5057878;28;20420;-69
2021/05/05 07:57:42;;;;;;;7.90;2.50;;;10.30;91.70;;;;;;5054682;28;20691;-67
2021/05/05 08:00:30;;;;;;;8.23;2.97;;;10.20;92.00;;;;;;5059247;28;20450;-68
2021/05/05 08:03:15;;;;;;;12.10;2.80;;;10.00;93.40;;;;;;5060326;28;20505;-68
2021/05/05 08:06:00;;;;;;;9.63;2.93;;;9.90;93.50;;;;;;5059967;28;20458;-68
2021/05/05 08:08:45;;;;;;;7.60;2.53;;;10.00;97.50;;;;;;5056601;28;21000;-69
2021/05/05 08:11:30;;;;;;;6.83;2.33;;;10.10;95.30;;;;;;5055539;28;20885;-68
2021/05/05 08:14:16;;;;;;;5.80;2.63;;;10.20;95.40;;;;;;5062078;28;20461;-70
2021/05/05 08:17:02;;;;;;;27.00;11.10;;;10.30;93.20;;;;;;5060389;28;20473;-67
2021/05/05 08:19:47;;;;;;;26.90;13.10;;;10.40;94.90;;;;;;5064944;28;20463;-68
2021/05/05 08:22:33;;;;;;;4.20;2.47;;;10.50;93.60;;;;;;5052632;28;20827;-68
2021/05/05 08:25:18;;;;;;;7.67;2.40;;;10.80;93.20;;;;;;5061000;28;20485;-67
2021/05/05 08:28:04;;;;;;;5.30;2.40;;;10.90;88.70;;;;;;5065424;28;20898;-67
2021/05/05 08:30:51;;;;;;;7.33;2.27;;;11.00;85.50;;;;;;5062290;28;20972;-68
2021/05/05 08:33:37;;;;;;;8.40;1.90;;;11.10;86.70;;;;;;5056737;28;20478;-68
2021/05/05 08:36:22;;;;;;;12.60;2.07;;;11.10;87.70;;;;;;5057941;28;20436;-68
2021/05/05 08:39:08;;;;;;;9.33;2.20;;;11.30;90.00;;;;;;5057957;28;20414;-72
2021/05/05 08:41:55;;;;;;;9.23;2.03;;;11.40;85.10;;;;;;5054650;28;20953;-68
2021/05/05 08:44:41;;;;;;;3.37;1.87;;;11.50;83.20;;;;;;5056682;28;20486;-69
2021/05/05 08:47:26;;;;;;;11.47;2.40;;;11.40;75.40;;;;;;5055242;28;20513;-69
2021/05/05 08:50:13;;;;;;;7.43;1.93;;;11.50;77.00;;;;;;5057739;28;20482;-68
2021/05/05 08:52:59;;;;;;;11.10;2.37;;;11.40;72.50;;;;;;5054976;28;20474;-69
2021/05/05 08:55:45;;;;;;;7.30;2.00;;;11.40;74.80;;;;;;5056687;28;20522;-68
2021/05/05 08:58:30;;;;;;;9.40;2.50;;;11.10;69.50;;;;;;5058412;28;20479;-69
2021/05/05 09:01:15;;;;;;;3.97;2.00;;;11.00;75.40;;;;;;5057845;28;20414;-68
2021/05/05 09:04:00;;;;;;;8.80;2.30;;;11.00;77.50;;;;;;5059299;28;20490;-70
2021/05/05 09:06:51;;;;;;;6.87;1.60;;;11.00;71.90;;;;;;5061937;28;20452;-69
2021/05/05 09:09:40;;;;;;;7.03;1.97;;;11.00;68.40;;;;;;5057772;28;20530;-69
2021/05/05 09:12:25;;;;;;;5.50;1.77;;;10.90;65.30;;;;;;5055779;28;20803;-70
2021/05/05 09:15:13;;;;;;;4.80;1.70;;;10.80;64.30;;;;;;5054879;28;20505;-70
2021/05/05 09:18:00;;;;;;;4.70;2.83;;;11.00;67.30;;;;;;5058459;28;21026;-71
2021/05/05 09:20:45;;;;;;;7.27;1.83;;;11.10;65.10;;;;;;5054010;28;20497;-70
2021/05/05 09:23:31;;;;;;;3.80;1.20;;;11.30;57.80;;;;;;5057995;28;20458;-70
2021/05/05 09:26:34;;;;;;;4.40;1.57;;;11.40;48.90;;;;;;5055566;28;20457;-71
2021/05/05 09:29:22;;;;;;;6.60;1.60;;;11.70;51.00;;;;;;5058059;28;20565;-71
2021/05/05 09:32:08;;;;;;;4.67;1.50;;;11.90;50.40;;;;;;5057753;28;20451;-71
2021/05/05 09:34:58;;;;;;;8.47;1.60;;;12.10;49.90;;;;;;5058672;28;20489;-71
2021/05/05 09:37:55;;;;;;;3.87;1.60;;;12.20;50.00;;;;;;5052360;28;20988;-70
2021/05/05 09:40:56;;;;;;;5.33;1.60;;;12.10;48.70;;;;;;5060127;28;20832;-71
2021/05/05 09:43:41;;;;;;;8.40;2.10;;;12.10;51.00;;;;;;5058364;28;20425;-70
2021/05/05 09:46:44;;;;;;;5.50;1.73;;;11.80;53.00;;;;;;5056249;28;20804;-70
2021/05/05 09:49:32;;;;;;;6.23;2.23;;;11.60;57.50;;;;;;5063830;28;21012;-69
2021/05/05 09:52:24;;;;;;;5.13;1.70;;;11.20;57.10;;;;;;5052783;28;20535;-69
2021/05/05 09:55:12;;;;;;;5.10;2.23;;;11.20;60.50;;;;;;5060515;28;20513;-72
2021/05/05 09:57:58;;;;;;;5.80;1.40;;;10.90;59.10;;;;;;5056981;28;20453;-70
2021/05/05 10:00:43;;;;;;;6.37;2.40;;;10.60;65.10;;;;;;5052948;28;20468;-69
2021/05/05 10:03:35;;;;;;;3.33;1.53;;;10.50;80.00;;;;;;5050791;28;20450;-69
2021/05/05 10:06:26;;;;;;;2.70;1.30;;;9.90;84.60;;;;;;5057197;28;20486;-69
2021/05/05 10:09:12;;;;;;;4.07;1.17;;;9.90;86.80;;;;;;5058969;28;20855;-70
2021/05/05 10:11:58;;;;;;;4.33;1.00;;;9.80;89.20;;;;;;5058424;28;20450;-69
2021/05/05 10:14:44;;;;;;;2.80;1.40;;;9.90;90.50;;;;;;5054606;28;20425;-70
2021/05/05 10:17:29;;;;;;;5.90;2.00;;;10.20;90.50;;;;;;5057923;28;20463;-72
2021/05/05 10:20:17;;;;;;;2.57;1.33;;;10.50;79.20;;;;;;5057717;28;20939;-69
2021/05/05 10:23:03;;;;;;;2.10;1.27;;;10.80;82.00;;;;;;5050900;28;20836;-70
2021/05/05 10:25:49;;;;;;;2.00;0.90;;;10.90;68.60;;;;;;5053534;28;20473;-69
2021/05/05 10:28:35;;;;;;;1.87;0.80;;;10.90;69.10;;;;;;5051778;28;21046;-70
2021/05/05 10:31:24;;;;;;;4.43;1.20;;;11.10;67.30;;;;;;5061376;28;20418;-70
2021/05/05 10:34:19;;;;;;;4.73;1.30;;;11.40;63.50;;;;;;5055684;28;20475;-70
2021/05/05 10:37:04;;;;;;;4.20;1.83;;;11.30;60.30;;;;;;5056721;28;20440;-71
2021/05/05 10:39:49;;;;;;;4.70;1.43;;;11.30;62.80;;;;;;5056592;28;20447;-70
2021/05/05 10:42:49;;;;;;;2.50;1.40;;;11.30;64.60;;;;;;5061257;28;20822;-69
2021/05/05 10:45:36;;;;;;;2.20;1.27;;;11.50;68.10;;;;;;5059043;28;20443;-70
2021/05/05 10:48:22;;;;;;;8.80;1.73;;;11.30;66.70;;;;;;5058178;28;20468;-68
2021/05/05 10:51:07;;;;;;;4.30;1.60;;;11.20;66.20;;;;;;5051332;28;20426;-69
2021/05/05 10:53:53;;;;;;;1.60;0.63;;;11.30;68.40;;;;;;5056891;28;20455;-69
2021/05/05 10:56:38;;;;;;;1.90;0.80;;;11.50;63.60;;;;;;5055643;28;21009;-70
2021/05/05 10:59:26;;;;;;;1.90;0.83;;;11.70;65.00;;;;;;5052100;28;20414;-70
2021/05/05 11:02:46;;;;;;;2.40;1.20;;;11.90;58.60;;;;;;5054510;28;20494;-69
2021/05/05 11:05:38;;;;;;;3.10;1.57;;;12.00;56.30;;;;;;5054373;28;20990;-69
2021/05/05 11:08:27;;;;;;;3.63;1.30;;;11.80;51.20;;;;;;5049490;28;20571;-69
2021/05/05 11:11:34;;;;;;;4.33;1.30;;;11.90;53.70;;;;;;5060074;28;20457;-68
2021/05/05 11:14:45;;;;;;;4.50;1.10;;;12.00;52.50;;;;;;5052147;28;20445;-69
2021/05/05 11:17:30;;;;;;;4.00;1.40;;;12.20;52.40;;;;;;5049677;28;20445;-69
2021/05/05 11:20:42;;;;;;;5.80;1.20;;;12.10;51.60;;;;;;5054690;28;20524;-70
2021/05/05 11:23:44;;;;;;;3.60;1.20;;;12.10;51.20;;;;;;5052976;28;20480;-70
2021/05/05 11:26:32;;;;;;;2.30;1.10;;;11.90;52.20;;;;;;5059236;28;20436;-70
2021/05/05 11:29:30;;;;;;;2.37;1.30;;;12.00;52.00;;;;;;5051952;28;20828;-69
2021/05/05 11:32:16;;;;;;;4.03;1.20;;;12.00;50.80;;;;;;5060794;28;20482;-69
2021/05/05 11:35:02;;;;;;;3.50;1.60;;;12.10;54.10;;;;;;5054129;28;20471;-69
2021/05/05 11:37:48;;;;;;;1.93;1.10;;;12.10;46.30;;;;;;5055049;28;20494;-68
2021/05/05 11:40:33;;;;;;;2.60;0.97;;;11.70;48.50;;;;;;5051549;28;20502;-68
2021/05/05 11:43:20;;;;;;;2.30;1.10;;;11.60;50.30;;;;;;5053641;28;20428;-71
2021/05/05 11:46:05;;;;;;;2.47;1.43;;;11.80;51.20;;;;;;5061287;28;20447;-69
2021/05/05 11:48:52;;;;;;;2.80;1.37;;;11.90;50.50;;;;;;5054083;28;20502;-68
2021/05/05 11:51:37;;;;;;;2.50;1.20;;;12.10;50.50;;;;;;5052385;28;20951;-68
2021/05/05 11:54:29;;;;;;;2.80;1.03;;;12.10;49.50;;;;;;5056406;28;20466;-70
2021/05/05 11:57:14;;;;;;;3.20;1.27;;;12.10;46.80;;;;;;5050965;28;20449;-70
2021/05/05 12:00:11;;;;;;;3.03;1.10;;;12.30;49.40;;;;;;5054734;28;20434;-69
2021/05/05 12:02:57;;;;;;;2.97;1.30;;;12.80;51.40;;;;;;5049941;28;20447;-68
2021/05/05 12:05:45;;;;;;;3.53;1.20;;;13.10;45.90;;;;;;5056304;28;20497;-70
2021/05/05 12:08:30;;;;;;;5.43;1.10;;;13.40;46.30;;;;;;5058650;28;20464;-69
2021/05/05 12:11:20;;;;;;;7.20;1.20;;;13.30;44.70;;;;;;5059135;28;20947;-70
2021/05/05 12:14:05;;;;;;;5.00;1.20;;;13.40;43.80;;;;;;5060889;28;20447;-70
2021/05/05 12:16:51;;;;;;;2.10;1.00;;;13.40;42.60;;;;;;5058556;28;20493;-70
2021/05/05 12:19:36;;;;;;;4.60;1.47;;;13.30;41.30;;;;;;5068138;28;20966;-71
2021/05/05 12:22:22;;;;;;;4.03;1.73;;;13.00;43.10;;;;;;5058701;28;20468;-71
2021/05/05 12:25:13;;;;;;;2.73;1.20;;;12.40;43.30;;;;;;5055037;28;20443;-71
2021/05/05 12:28:09;;;;;;;3.93;1.30;;;12.30;45.10;;;;;;5060428;28;20978;-71
2021/05/05 12:30:56;;;;;;;4.70;1.70;;;12.50;47.20;;;;;;5056463;28;20482;-68
2021/05/05 12:33:42;;;;;;;2.53;1.23;;;12.90;45.60;;;;;;5056688;28;20421;-69
2021/05/05 12:36:29;;;;;;;3.87;0.90;;;13.20;40.80;;;;;;5059236;28;20465;-68
2021/05/05 12:39:17;;;;;;;3.90;1.30;;;13.40;40.60;;;;;;5054903;28;20443;-70
2021/05/05 12:42:13;;;;;;;3.07;1.20;;;13.60;40.00;;;;;;5062397;28;20454;-70
2021/05/05 12:45:09;;;;;;;2.13;0.97;;;14.00;40.10;;;;;;5059230;28;20471;-70
2021/05/05 12:48:00;;;;;;;2.43;1.00;;;13.90;38.00;;;;;;5058579;28;20463;-70
2021/05/05 12:50:46;;;;;;;2.40;1.03;;;13.80;38.40;;;;;;5056344;28;20799;-70
2021/05/05 12:53:45;;;;;;;5.53;3.03;;;13.50;37.30;;;;;;5052560;28;20520;-69
2021/05/05 12:56:41;;;;;;;8.27;1.17;;;13.00;40.00;;;;;;5060028;28;20911;-70
2021/05/05 12:59:33;;;;;;;17.50;1.40;;;12.00;44.90;;;;;;5058085;28;20468;-71
2021/05/05 13:02:22;;;;;;;2.87;1.10;;;11.90;51.00;;;;;;5056860;28;21013;-70
2021/05/05 13:05:09;;;;;;;1.80;0.90;;;11.40;51.00;;;;;;5060521;28;20456;-70
2021/05/05 13:07:54;;;;;;;2.07;0.73;;;10.50;59.80;;;;;;5054978;28;20560;-70
2021/05/05 13:10:46;;;;;;;3.50;1.13;;;10.00;56.60;;;;;;5064087;28;20500;-70
2021/05/05 13:13:50;;;;;;;2.23;0.93;;;9.80;61.90;;;;;;5067849;28;20962;-70
2021/05/05 13:17:00;;;;;;;3.13;0.90;;;9.80;68.20;;;;;;5055965;28;20600;-68
2021/05/05 13:20:15;;;;;;;2.80;0.90;;;9.90;71.10;;;;;;5059628;28;20447;-70
2021/05/05 13:29:42;;;;;;;4.63;1.40;;;10.00;70.10;;;;;;5057185;28;21097;-70
2021/05/05 13:32:31;;;;;;;2.20;1.03;;;9.70;81.80;;;;;;5060041;28;20442;-71
2021/05/05 13:35:26;;;;;;;18.43;9.77;;;9.50;77.30;;;;;;5056416;28;20457;-71
2021/05/05 13:38:13;;;;;;;2.80;1.50;;;9.60;90.10;;;;;;5053858;28;20557;-70
2021/05/05 13:41:01;;;;;;;1.83;1.17;;;9.70;90.20;;;;;;5059664;28;20459;-71
2021/05/05 13:43:50;;;;;;;2.37;1.03;;;9.90;90.60;;;;;;5063407;28;20421;-71
2021/05/05 13:46:55;;;;;;;2.20;0.93;;;10.10;93.20;;;;;;5058198;28;20511;-70
2021/05/05 13:49:42;;;;;;;2.17;1.00;;;10.50;95.00;;;;;;5058927;28;21206;-71
2021/05/05 13:52:30;;;;;;;2.43;1.70;;;10.50;93.10;;;;;;5057633;28;20459;-72
2021/05/05 13:55:15;;;;;;;4.37;1.07;;;10.40;94.20;;;;;;5055250;28;20447;-71
2021/05/05 13:58:00;;;;;;;3.30;1.00;;;10.20;95.10;;;;;;5053854;28;20522;-72
2021/05/05 14:00:45;;;;;;;1.73;1.00;;;10.00;98.00;;;;;;5064971;28;20451;-71
2021/05/05 14:03:30;;;;;;;2.93;0.80;;;9.90;99.90;;;;;;5058629;28;20450;-71
2021/05/05 14:06:16;;;;;;;7.83;1.50;;;9.60;99.90;;;;;;5059429;28;20838;-73
2021/05/05 14:09:02;;;;;;;14.50;1.30;;;9.30;99.90;;;;;;5056101;28;20846;-72
2021/05/05 14:11:48;;;;;;;5.10;1.10;;;8.80;99.90;;;;;;5055960;28;20504;-73
2021/05/05 14:14:35;;;;;;;2.60;1.03;;;8.80;99.90;;;;;;5054597;28;20443;-72
2021/05/05 14:17:20;;;;;;;10.93;1.50;;;8.60;99.90;;;;;;5053261;28;20545;-73
2021/05/05 14:20:10;;;;;;;7.47;1.60;;;8.60;99.90;;;;;;5056922;28;23323;-73
2021/05/05 14:22:55;;;;;;;4.43;1.20;;;8.60;99.90;;;;;;5049765;28;20454;-73
2021/05/05 14:25:42;;;;;;;3.70;1.10;;;8.70;99.90;;;;;;5051079;28;20462;-73
2021/05/05 14:28:27;;;;;;;1.90;1.20;;;8.80;99.90;;;;;;5057147;28;21556;-72
2021/05/05 14:31:13;;;;;;;11.70;3.20;;;8.90;99.90;;;;;;5054266;28;20553;-73
2021/05/05 14:33:58;;;;;;;4.60;1.40;;;9.00;99.90;;;;;;5055893;28;20834;-73
2021/05/05 14:36:43;;;;;;;5.90;3.00;;;9.10;99.90;;;;;;5050870;28;20478;-71
2021/05/05 14:39:28;;;;;;;7.00;1.30;;;9.60;99.90;;;;;;5050707;28;22761;-70
2021/05/05 14:42:18;;;;;;;2.20;1.20;;;9.90;99.90;;;;;;5061281;28;20478;-73
2021/05/05 14:45:21;;;;;;;6.03;1.70;;;10.30;99.90;;;;;;5052256;28;20647;-73